createdAt,value
2022-07-28T00:00:55.138Z,72.13
2022-07-28T00:03:00.985Z,71.96
2022-07-28T00:05:05.413Z,72.00
2022-07-28T00:07:09.679Z,71.82
2022-07-28T00:09:14.312Z,71.62
2022-07-28T00:11:18.324Z,71.44
2022-07-28T00:13:22.927Z,71.47
2022-07-28T00:15:27.430Z,71.09
2022-07-28T00:17:32.009Z,71.57
2022-07-28T00:19:38.316Z,71.72
2022-07-28T00:21:42.544Z,71.57
2022-07-28T00:23:47.018Z,71.86
2022-07-28T00:25:51.131Z,71.69
2022-07-28T00:27:55.441Z,71.87
2022-07-28T00:29:59.549Z,71.68
2022-07-28T00:32:03.796Z,71.72
2022-07-28T00:34:09.033Z,71.63
2022-07-28T00:36:15.042Z,71.40
2022-07-28T00:38:19.496Z,72.05
2022-07-28T00:40:47.793Z,71.81
2022-07-28T00:42:51.649Z,71.89
2022-07-28T00:44:56.757Z,71.85
2022-07-28T00:47:01.103Z,72.22
2022-07-28T00:49:05.534Z,71.62
2022-07-28T00:51:10.464Z,71.95
2022-07-28T00:53:16.010Z,71.84
2022-07-28T00:55:20.258Z,72.04
2022-07-28T00:57:23.719Z,72.13
2022-07-28T00:59:27.874Z,72.24
2022-07-28T01:01:31.543Z,72.29
2022-07-28T01:03:37.628Z,72.19
2022-07-28T01:05:49.566Z,72.35
2022-07-28T01:08:02.668Z,72.20
2022-07-28T01:10:12.527Z,72.50
2022-07-28T01:12:25.294Z,71.91
2022-07-28T01:14:36.424Z,72.39
2022-07-28T01:16:46.631Z,72.54
2022-07-28T01:18:54.958Z,72.84
2022-07-28T01:21:03.624Z,72.65
2022-07-28T01:23:30.805Z,73.03
2022-07-28T01:25:48.579Z,72.93
2022-07-28T01:28:05.018Z,73.58
2022-07-28T01:30:13.560Z,73.62
2022-07-28T01:32:22.219Z,73.54
2022-07-28T01:34:32.166Z,74.01
2022-07-28T01:36:41.170Z,74.05
2022-07-28T01:38:47.557Z,73.61
2022-07-28T01:40:53.995Z,74.22
2022-07-28T01:43:01.361Z,74.15
2022-07-28T01:45:08.270Z,74.05
2022-07-28T01:47:12.505Z,74.37
2022-07-28T01:49:19.530Z,74.33
2022-07-28T01:51:26.548Z,75.01
2022-07-28T01:53:37.810Z,74.91
2022-07-28T01:55:44.835Z,74.80
2022-07-28T01:57:50.718Z,74.95
2022-07-28T01:59:56.326Z,75.38
2022-07-28T02:02:01.491Z,75.31
2022-07-28T02:04:06.859Z,75.26
2022-07-28T02:06:13.634Z,75.68
2022-07-28T02:08:20.333Z,75.20
2022-07-28T02:10:26.796Z,75.37
2022-07-28T02:12:29.879Z,75.36
2022-07-28T02:14:36.469Z,75.57
2022-07-28T02:16:43.027Z,75.42
2022-07-28T02:18:48.367Z,75.88
2022-07-28T02:20:53.540Z,76.11
2022-07-28T02:22:59.648Z,76.12
2022-07-28T02:25:03.928Z,75.83
2022-07-28T02:27:13.184Z,75.79
2022-07-28T02:29:48.077Z,76.39
2022-07-28T02:31:51.827Z,76.48
2022-07-28T02:34:02.410Z,76.44
2022-07-28T02:36:11.482Z,75.97
2022-07-28T02:38:24.179Z,75.88
2022-07-28T02:40:32.597Z,76.38
2022-07-28T02:42:38.071Z,75.99
2022-07-28T02:44:45.265Z,76.16
2022-07-28T02:46:52.991Z,76.44
2022-07-28T02:49:07.013Z,76.19
2022-07-28T02:51:13.594Z,76.89
2022-07-28T02:53:18.923Z,76.81
2022-07-28T02:55:26.117Z,77.13
2022-07-28T02:57:32.871Z,77.24
2022-07-28T02:59:37.930Z,77.10
2022-07-28T03:01:45.397Z,77.73
2022-07-28T03:03:51.271Z,77.22
2022-07-28T03:05:59.811Z,77.35
2022-07-28T03:08:04.539Z,77.64
2022-07-28T03:10:09.950Z,77.59
2022-07-28T03:12:16.518Z,77.72
2022-07-28T03:14:21.201Z,77.75
2022-07-28T03:16:25.465Z,77.79
2022-07-28T03:18:29.984Z,77.97
2022-07-28T03:20:35.176Z,77.47
2022-07-28T03:22:39.991Z,77.93
2022-07-28T03:24:48.924Z,77.96
2022-07-28T03:26:59.742Z,78.05
2022-07-28T03:29:06.275Z,77.96
2022-07-28T03:31:14.485Z,78.39
2022-07-28T03:33:20.312Z,77.97
2022-07-28T03:35:26.138Z,78.25
2022-07-28T03:37:35.832Z,78.72
2022-07-28T03:39:47.361Z,78.42
2022-07-28T03:41:54.038Z,79.03
2022-07-28T03:43:58.887Z,78.55
2022-07-28T03:46:07.597Z,78.60
2022-07-28T03:48:15.813Z,78.88
2022-07-28T03:50:20.352Z,78.56
2022-07-28T03:52:24.743Z,79.05
2022-07-28T03:54:30.488Z,78.53
2022-07-28T03:56:34.981Z,78.32
2022-07-28T03:58:39.286Z,78.51
2022-07-28T04:00:43.540Z,78.57
2022-07-28T04:02:49.673Z,78.80
2022-07-28T04:04:53.937Z,79.26
2022-07-28T04:06:58.226Z,79.44
2022-07-28T04:09:02.515Z,78.71
2022-07-28T04:11:07.554Z,79.18
2022-07-28T04:13:12.681Z,79.39
2022-07-28T04:15:17.562Z,79.07
2022-07-28T04:17:21.882Z,79.68
2022-07-28T04:19:27.680Z,79.14
2022-07-28T04:21:32.184Z,79.37
2022-07-28T04:23:36.197Z,79.54
2022-07-28T04:25:40.471Z,79.91
2022-07-28T04:27:45.650Z,79.48
2022-07-28T04:29:49.996Z,79.78
2022-07-28T04:31:54.167Z,79.59
2022-07-28T04:34:00.453Z,81.19
2022-07-28T04:36:06.631Z,81.07
2022-07-28T04:38:14.277Z,80.55
2022-07-28T04:40:20.062Z,80.55
2022-07-28T04:42:24.426Z,80.74
2022-07-28T04:44:28.385Z,80.91
2022-07-28T04:46:32.508Z,80.80
2022-07-28T04:48:36.744Z,81.48
2022-07-28T04:50:42.580Z,81.70
2022-07-28T04:52:49.809Z,81.33
2022-07-28T04:54:54.058Z,82.43
2022-07-28T04:56:58.567Z,81.59
2022-07-28T04:59:05.211Z,81.61
2022-07-28T05:01:10.276Z,82.02
2022-07-28T05:03:14.757Z,81.65
2022-07-28T05:05:21.247Z,81.96
2022-07-28T05:07:25.767Z,81.18
2022-07-28T05:09:32.046Z,81.29
2022-07-28T05:11:36.701Z,81.79
2022-07-28T05:13:41.494Z,81.04
2022-07-28T05:15:46.429Z,80.89
2022-07-28T05:17:50.714Z,81.18
2022-07-28T05:19:55.464Z,80.92
2022-07-28T05:21:59.466Z,80.83
2022-07-28T05:24:03.936Z,81.50
2022-07-28T05:26:09.354Z,81.25
2022-07-28T05:28:14.086Z,81.50
2022-07-28T05:30:19.326Z,81.25
2022-07-28T05:32:23.857Z,81.60
2022-07-28T05:34:28.263Z,81.78
2022-07-28T05:36:32.482Z,81.33
2022-07-28T05:38:36.768Z,81.49
2022-07-28T05:40:41.504Z,82.05
2022-07-28T05:42:48.174Z,82.38
2022-07-28T05:44:52.291Z,81.60
2022-07-28T05:46:56.346Z,81.11
2022-07-28T05:49:00.668Z,81.51
2022-07-28T05:51:05.728Z,82.17
2022-07-28T05:53:09.868Z,81.44
2022-07-28T05:55:14.320Z,81.53
2022-07-28T05:57:18.732Z,80.80
2022-07-28T05:59:24.447Z,80.93
2022-07-28T06:01:28.490Z,81.31
2022-07-28T06:03:41.542Z,81.14
2022-07-28T06:06:14.392Z,81.13
2022-07-28T06:08:10.772Z,80.45
2022-07-28T06:10:16.686Z,80.26
2022-07-28T06:12:21.381Z,80.64
2022-07-28T06:14:27.089Z,80.86
2022-07-28T06:16:31.503Z,80.49
2022-07-28T06:18:35.920Z,80.23
2022-07-28T06:20:40.050Z,80.27
2022-07-28T06:22:45.770Z,80.27
2022-07-28T06:24:50.120Z,79.87
2022-07-28T06:26:54.199Z,79.65
2022-07-28T06:28:57.802Z,79.76
2022-07-28T06:31:02.863Z,78.88
2022-07-28T06:33:08.198Z,78.69
2022-07-28T06:35:14.945Z,78.31
2022-07-28T06:37:19.039Z,78.30
2022-07-28T06:39:22.844Z,77.57
2022-07-28T06:41:26.674Z,76.85
2022-07-28T06:43:30.686Z,76.24
2022-07-28T06:45:34.726Z,75.70
2022-07-28T06:47:45.824Z,75.49
2022-07-28T06:49:51.695Z,75.30
2022-07-28T06:51:55.334Z,75.39
2022-07-28T06:53:59.713Z,75.59
2022-07-28T06:56:05.419Z,75.44
2022-07-28T06:58:10.171Z,75.16
2022-07-28T07:00:14.702Z,74.81
2022-07-28T07:02:19.206Z,74.46
2022-07-28T07:04:24.390Z,73.79
2022-07-28T07:06:28.065Z,73.89
2022-07-28T07:08:31.832Z,73.25
2022-07-28T07:10:36.378Z,73.10
2022-07-28T07:12:40.512Z,72.55
2022-07-28T07:14:44.066Z,72.54
2022-07-28T07:16:47.865Z,72.04
2022-07-28T07:18:53.238Z,72.33
2022-07-28T07:20:59.743Z,71.98
2022-07-28T07:23:03.438Z,71.72
2022-07-28T07:25:10.787Z,71.38
2022-07-28T07:27:14.517Z,71.44
2022-07-28T07:29:18.286Z,71.41
2022-07-28T07:31:22.867Z,71.25
2022-07-28T07:33:26.566Z,71.78
2022-07-28T07:35:30.451Z,71.62
2022-07-28T07:37:35.688Z,71.78
2022-07-28T07:39:39.426Z,71.47
2022-07-28T07:41:43.541Z,71.38
2022-07-28T07:43:48.352Z,71.32
2022-07-28T07:45:52.097Z,71.18
2022-07-28T07:47:55.714Z,71.32
2022-07-28T07:50:01.850Z,71.37
2022-07-28T07:52:07.870Z,71.31
2022-07-28T07:54:13.223Z,71.08
2022-07-28T07:56:18.577Z,71.23
2022-07-28T07:58:22.842Z,71.24
2022-07-28T08:00:29.282Z,71.30
2022-07-28T08:02:33.183Z,71.18
2022-07-28T08:04:37.072Z,70.94
2022-07-28T08:06:41.389Z,71.13
2022-07-28T08:08:48.495Z,71.30
2022-07-28T08:10:54.632Z,71.48
2022-07-28T08:12:58.526Z,71.38
2022-07-28T08:15:02.302Z,71.16
2022-07-28T08:17:06.402Z,71.38
2022-07-28T08:19:10.408Z,71.55
2022-07-28T08:21:16.469Z,71.50
2022-07-28T08:23:26.051Z,71.68
2022-07-28T08:25:30.213Z,72.15
2022-07-28T08:27:36.975Z,72.40
2022-07-28T08:29:40.559Z,72.73
2022-07-28T08:31:44.465Z,72.93
2022-07-28T08:33:54.306Z,72.77
2022-07-28T08:35:58.544Z,73.72
2022-07-28T08:38:02.359Z,74.45
2022-07-28T08:40:09.314Z,75.03
2022-07-28T08:42:17.119Z,75.77
2022-07-28T08:44:26.895Z,75.91
2022-07-28T08:46:36.042Z,75.52
2022-07-28T08:48:40.450Z,75.73
2022-07-28T08:50:46.011Z,76.13
2022-07-28T08:52:52.701Z,77.00
2022-07-28T08:54:59.196Z,77.47
2022-07-28T08:57:04.436Z,77.76
2022-07-28T08:59:09.107Z,77.84
2022-07-28T09:01:14.409Z,77.97
2022-07-28T09:03:19.434Z,78.29
2022-07-28T09:05:24.338Z,78.37
2022-07-28T09:07:29.470Z,78.53
2022-07-28T09:09:34.221Z,78.19
2022-07-28T09:11:38.474Z,78.59
2022-07-28T09:13:42.345Z,78.93
2022-07-28T09:15:47.553Z,79.88
2022-07-28T09:17:53.404Z,80.19
2022-07-28T09:19:57.430Z,80.45
2022-07-28T09:22:02.064Z,80.78
2022-07-28T09:24:06.818Z,81.27
2022-07-28T09:26:12.530Z,81.37
2022-07-28T09:28:20.137Z,81.24
2022-07-28T09:30:32.005Z,80.49
2022-07-28T09:32:36.266Z,80.02
2022-07-28T09:34:46.540Z,79.75
2022-07-28T09:36:51.098Z,79.84
2022-07-28T09:38:56.944Z,80.31
2022-07-28T09:41:03.088Z,80.34
2022-07-28T09:43:07.046Z,79.73
2022-07-28T09:45:27.262Z,79.13
2022-07-28T09:47:33.389Z,77.98
2022-07-28T09:49:45.045Z,77.56
2022-07-28T09:52:02.711Z,77.33
2022-07-28T09:54:13.213Z,76.86
2022-07-28T09:56:18.861Z,76.57
2022-07-28T09:58:23.046Z,76.38
2022-07-28T10:00:31.897Z,76.24
2022-07-28T10:02:37.118Z,75.18
2022-07-28T10:04:42.348Z,74.45
2022-07-28T10:06:47.718Z,74.31
2022-07-28T10:08:52.885Z,73.29
2022-07-28T10:11:03.874Z,73.31
2022-07-28T10:13:07.828Z,73.19
2022-07-28T10:15:31.479Z,72.97
2022-07-28T10:17:36.305Z,72.62
2022-07-28T10:19:40.931Z,72.60
2022-07-28T10:21:46.779Z,72.52
2022-07-28T10:23:52.396Z,72.51
2022-07-28T10:25:58.208Z,72.88
2022-07-28T10:28:03.421Z,72.04
2022-07-28T10:30:09.261Z,71.72
2022-07-28T10:32:13.242Z,71.59
2022-07-28T10:34:25.013Z,71.13
2022-07-28T10:36:29.839Z,71.77
2022-07-28T10:38:37.912Z,71.59
2022-07-28T10:40:44.290Z,71.16
2022-07-28T10:42:48.263Z,71.01
2022-07-28T10:44:54.528Z,71.29
2022-07-28T10:46:59.483Z,70.51
2022-07-28T10:49:05.414Z,70.96
2022-07-28T10:51:14.170Z,71.00
2022-07-28T10:53:28.282Z,70.35
2022-07-28T10:55:46.459Z,70.14
2022-07-28T10:58:11.417Z,70.00
2022-07-28T11:00:26.420Z,70.02
2022-07-28T11:02:48.955Z,70.64
2022-07-28T11:04:55.673Z,70.46
2022-07-28T11:07:12.249Z,69.88
2022-07-28T11:09:24.622Z,69.90
2022-07-28T11:11:51.282Z,68.91
2022-07-28T11:13:55.949Z,68.57
2022-07-28T11:16:19.113Z,68.56
2022-07-28T11:18:24.134Z,68.68
2022-07-28T11:21:00.836Z,68.05
2022-07-28T11:23:38.140Z,67.04
2022-07-28T11:25:42.339Z,66.58
2022-07-28T11:28:04.812Z,65.96
2022-07-28T11:30:08.730Z,66.38
2022-07-28T11:32:12.684Z,66.08
2022-07-28T11:34:18.840Z,65.87
2022-07-28T11:36:23.411Z,66.76
2022-07-28T11:38:27.869Z,66.63
2022-07-28T11:40:33.416Z,66.82
2022-07-28T11:42:37.525Z,67.61
2022-07-28T11:44:43.028Z,68.29
2022-07-28T11:46:46.986Z,68.93
2022-07-28T11:49:19.037Z,70.41
2022-07-28T11:51:23.681Z,70.42
2022-07-28T11:53:34.258Z,69.84
2022-07-28T11:55:55.322Z,69.89
2022-07-28T11:58:03.730Z,69.55
2022-07-28T12:00:10.670Z,70.96
2022-07-28T12:02:19.178Z,71.11
2022-07-28T12:04:28.034Z,72.13
2022-07-28T12:06:37.662Z,72.55
2022-07-28T12:08:57.020Z,72.41
2022-07-28T12:11:00.967Z,72.41
2022-07-28T12:13:07.551Z,72.64
2022-07-28T12:15:16.592Z,72.61
2022-07-28T12:17:20.314Z,72.70
2022-07-28T12:19:32.859Z,72.39
2022-07-28T12:21:46.415Z,71.38
2022-07-28T12:23:55.620Z,71.41
2022-07-28T12:26:01.851Z,70.85
2022-07-28T12:28:18.881Z,71.55
2022-07-28T12:30:26.754Z,70.99
2022-07-28T12:32:35.636Z,71.38
2022-07-28T12:34:43.819Z,71.50
2022-07-28T12:36:48.341Z,71.11
2022-07-28T12:38:52.895Z,70.38
2022-07-28T12:40:56.874Z,69.25
2022-07-28T12:43:00.470Z,67.54
2022-07-28T12:45:07.673Z,67.46
2022-07-28T12:47:14.316Z,68.44
2022-07-28T12:49:24.557Z,68.96
2022-07-28T12:51:33.049Z,69.19
2022-07-28T12:53:36.929Z,70.08
2022-07-28T12:55:43.783Z,70.31
2022-07-28T12:57:50.999Z,70.21
2022-07-28T13:00:08.075Z,69.98
2022-07-28T13:02:13.572Z,70.20
2022-07-28T13:04:18.521Z,70.11
2022-07-28T13:06:22.794Z,69.47
2022-07-28T13:08:38.551Z,68.91
2022-07-28T13:10:49.023Z,68.21
2022-07-28T13:13:02.358Z,67.55
2022-07-28T13:15:16.491Z,66.94
2022-07-28T13:17:22.620Z,66.03
2022-07-28T13:19:26.549Z,66.34
2022-07-28T13:21:58.406Z,66.60
2022-07-28T13:24:03.494Z,66.68
2022-07-28T13:26:08.878Z,67.18
2022-07-28T13:28:28.937Z,67.11
2022-07-28T13:30:32.608Z,66.99
2022-07-28T13:32:38.165Z,66.64
2022-07-28T13:34:47.165Z,65.92
2022-07-28T13:36:50.889Z,65.85
2022-07-28T13:38:54.601Z,65.70
2022-07-28T13:40:58.484Z,65.16
2022-07-28T13:43:02.173Z,64.79
2022-07-28T13:45:30.279Z,65.07
2022-07-28T13:47:38.873Z,64.41
2022-07-28T13:49:44.873Z,64.11
2022-07-28T13:51:51.049Z,64.01
2022-07-28T13:53:55.664Z,64.02
2022-07-28T13:56:00.300Z,64.79
2022-07-28T13:58:08.455Z,64.43
2022-07-28T14:00:13.836Z,64.28
2022-07-28T14:02:17.526Z,64.00
2022-07-28T14:04:22.001Z,63.83
2022-07-28T14:06:28.065Z,63.53
2022-07-28T14:08:31.909Z,63.55
2022-07-28T14:10:36.020Z,64.00
2022-07-28T14:12:40.370Z,64.14
2022-07-28T14:14:48.532Z,64.15
2022-07-28T14:16:54.369Z,64.73
2022-07-28T14:18:58.876Z,65.04
2022-07-28T14:21:03.539Z,66.53
2022-07-28T14:23:08.742Z,67.04
2022-07-28T14:25:13.509Z,66.95
2022-07-28T14:27:28.944Z,67.25
2022-07-28T14:29:33.108Z,67.69
2022-07-28T14:31:37.097Z,67.56
2022-07-28T14:33:46.355Z,67.56
2022-07-28T14:35:51.146Z,67.75
2022-07-28T14:40:20.137Z,67.21
2022-07-28T14:42:24.334Z,67.04
2022-07-28T14:44:28.403Z,67.08
2022-07-28T14:46:33.369Z,66.84
2022-07-28T14:48:37.120Z,66.79
2022-07-28T14:50:41.060Z,67.26
2022-07-28T14:52:45.301Z,67.20
2022-07-28T14:54:49.433Z,67.50
2022-07-28T14:56:54.645Z,67.70
2022-07-28T14:58:58.134Z,68.12
2022-07-28T15:01:02.142Z,68.05
2022-07-28T15:03:06.145Z,68.03
2022-07-28T15:05:11.351Z,68.34
2022-07-28T15:07:15.147Z,68.24
2022-07-28T15:09:18.888Z,68.37
2022-07-28T15:11:22.453Z,68.34
2022-07-28T15:13:28.637Z,67.97
2022-07-28T15:15:32.212Z,68.72
2022-07-28T15:17:36.131Z,68.51
2022-07-28T15:19:39.974Z,68.62
2022-07-28T15:21:45.870Z,68.93
2022-07-28T15:23:49.493Z,69.08
2022-07-28T15:25:53.911Z,69.63
2022-07-28T15:27:58.039Z,70.06
2022-07-28T15:30:03.506Z,70.58
2022-07-28T15:32:10.710Z,70.86
2022-07-28T15:34:17.106Z,71.19
2022-07-28T15:36:20.904Z,71.62
2022-07-28T15:38:24.631Z,71.66
2022-07-28T15:40:28.167Z,72.03
2022-07-28T15:42:31.725Z,71.93
2022-07-28T15:44:35.357Z,72.45
2022-07-28T15:46:40.605Z,72.10
2022-07-28T15:48:45.378Z,72.02
2022-07-28T15:50:49.342Z,72.52
2022-07-28T15:52:53.066Z,72.12
2022-07-28T15:54:57.059Z,72.10
2022-07-28T15:57:00.604Z,72.07
2022-07-28T15:59:06.615Z,72.37
2022-07-28T16:01:10.174Z,72.44
2022-07-28T16:03:15.795Z,72.30
2022-07-28T16:05:19.601Z,72.25
2022-07-28T16:07:24.666Z,72.36
2022-07-28T16:09:45.338Z,72.05
2022-07-28T16:11:50.615Z,71.68
2022-07-28T16:13:54.342Z,71.61
2022-07-28T16:15:58.144Z,71.83
2022-07-28T16:18:01.918Z,72.27
2022-07-28T16:20:10.430Z,71.82
2022-07-28T16:22:14.118Z,71.35
2022-07-28T16:24:18.254Z,71.28
2022-07-28T16:26:21.977Z,71.23
2022-07-28T16:28:25.640Z,71.03
2022-07-28T16:30:31.036Z,71.19
2022-07-28T16:32:35.147Z,71.46
2022-07-28T16:34:38.989Z,72.39
2022-07-28T16:36:44.215Z,72.92
2022-07-28T16:38:47.977Z,74.02
2022-07-28T16:40:51.898Z,74.99
2022-07-28T16:42:55.475Z,75.63
2022-07-28T16:44:59.626Z,76.03
2022-07-28T16:47:03.334Z,77.18
2022-07-28T16:49:07.085Z,77.80
2022-07-28T16:51:11.752Z,78.21
2022-07-28T16:53:16.926Z,78.92
2022-07-28T16:55:23.584Z,79.32
2022-07-28T16:57:27.711Z,79.55
2022-07-28T16:59:37.696Z,79.91
2022-07-28T17:01:53.341Z,79.44
2022-07-28T17:03:57.082Z,79.46
2022-07-28T17:06:00.689Z,79.08
2022-07-28T17:08:05.171Z,79.24
2022-07-28T17:10:11.850Z,79.25
2022-07-28T17:12:15.403Z,79.44
2022-07-28T17:14:19.259Z,79.79
2022-07-28T17:16:23.483Z,80.14
2022-07-28T17:18:27.710Z,80.20
2022-07-28T17:20:32.512Z,80.47
2022-07-28T17:22:36.249Z,80.10
2022-07-28T17:24:39.904Z,80.10
2022-07-28T17:29:11.872Z,79.77
2022-07-28T17:31:15.709Z,79.21
2022-07-28T17:33:19.619Z,78.49
2022-07-28T17:35:34.267Z,78.48
2022-07-28T17:37:38.982Z,77.81
2022-07-28T17:39:42.806Z,77.80
2022-07-28T17:41:47.917Z,78.26
2022-07-28T17:43:51.739Z,78.01
2022-07-28T17:45:56.522Z,78.01
2022-07-28T17:48:00.645Z,78.51
2022-07-28T17:50:04.940Z,78.55
2022-07-28T17:52:09.168Z,78.48
2022-07-28T17:54:15.955Z,78.52
2022-07-28T17:56:20.515Z,78.31
2022-07-28T17:58:32.676Z,78.62
2022-07-28T18:00:36.765Z,78.31
2022-07-28T18:02:40.816Z,78.15
2022-07-28T18:04:45.083Z,78.44
2022-07-28T18:06:48.954Z,78.58
2022-07-28T18:08:52.482Z,77.95
2022-07-28T18:10:56.425Z,77.87
2022-07-28T18:13:00.567Z,77.74
2022-07-28T18:15:06.556Z,78.32
2022-07-28T18:17:10.771Z,78.29
2022-07-28T18:19:14.935Z,78.26
2022-07-28T18:21:18.574Z,77.98
2022-07-28T18:23:23.617Z,78.51
2022-07-28T18:25:29.555Z,78.74
2022-07-28T18:27:33.330Z,78.76
2022-07-28T18:29:38.906Z,78.90
2022-07-28T18:31:46.857Z,78.73
2022-07-28T18:33:51.031Z,78.68
2022-07-28T18:35:54.984Z,78.28
2022-07-28T18:37:59.680Z,78.31
2022-07-28T18:40:04.536Z,78.22
2022-07-28T18:42:08.557Z,78.53
2022-07-28T18:44:12.722Z,78.19
2022-07-28T18:46:17.298Z,78.22
2022-07-28T18:48:25.714Z,78.33
2022-07-28T18:50:31.486Z,78.44
2022-07-28T18:52:36.403Z,78.16
2022-07-28T18:54:40.526Z,78.16
2022-07-28T18:56:44.691Z,78.23
2022-07-28T18:58:51.924Z,78.32
2022-07-28T19:00:56.295Z,78.38
2022-07-28T19:03:00.482Z,78.46
2022-07-28T19:05:06.686Z,78.22
2022-07-28T19:07:10.952Z,78.44
2022-07-28T19:09:14.898Z,77.83
2022-07-28T19:11:20.025Z,77.85
2022-07-28T19:13:24.377Z,78.04
2022-07-28T19:15:28.875Z,77.67
2022-07-28T19:17:34.154Z,77.77
2022-07-28T19:19:38.469Z,77.61
2022-07-28T19:21:44.532Z,77.77
2022-07-28T19:23:49.384Z,77.64
2022-07-28T19:25:53.590Z,77.82
2022-07-28T19:27:57.984Z,77.67
2022-07-28T19:30:02.529Z,77.49
2022-07-28T19:32:08.518Z,77.45
2022-07-28T19:34:13.312Z,77.68
2022-07-28T19:36:17.857Z,77.76
2022-07-28T19:38:23.359Z,78.09
2022-07-28T19:40:29.443Z,78.28
2022-07-28T19:42:35.368Z,78.50
2022-07-28T19:44:39.595Z,78.58
2022-07-28T19:46:45.040Z,78.88
2022-07-28T19:48:49.289Z,79.54
2022-07-28T19:50:53.707Z,79.61
2022-07-28T19:52:58.462Z,79.91
2022-07-28T19:55:04.240Z,79.83
2022-07-28T19:57:12.379Z,80.06
2022-07-28T19:59:18.686Z,80.61
2022-07-28T20:01:22.930Z,80.57
2022-07-28T20:04:01.415Z,80.38
2022-07-28T20:05:51.109Z,80.30
2022-07-28T20:07:55.300Z,80.35
2022-07-28T20:09:59.560Z,80.52
2022-07-28T20:12:05.324Z,80.12
2022-07-28T20:14:11.972Z,80.54
2022-07-28T20:16:16.218Z,80.63
2022-07-28T20:18:20.464Z,81.09
2022-07-28T20:20:24.604Z,80.90
2022-07-28T20:22:28.775Z,81.09
2022-07-28T20:24:33.119Z,81.33
2022-07-28T20:26:37.575Z,81.39
2022-07-28T20:28:44.283Z,81.77
2022-07-28T20:30:49.590Z,81.90
2022-07-28T20:32:54.044Z,81.93
2022-07-28T20:34:58.459Z,82.07
2022-07-28T20:37:02.570Z,82.33
2022-07-28T20:39:34.286Z,82.37
2022-07-28T20:41:35.550Z,82.55
2022-07-28T20:43:39.808Z,82.66
2022-07-28T20:45:46.496Z,83.22
2022-07-28T20:47:50.516Z,83.39
2022-07-28T20:49:55.535Z,83.56
2022-07-28T20:52:00.384Z,83.86
2022-07-28T20:54:04.021Z,83.88
2022-07-28T20:56:08.547Z,84.63
2022-07-28T20:58:13.462Z,84.88
2022-07-28T21:00:19.301Z,84.99
2022-07-28T21:02:25.825Z,85.31
2022-07-28T21:04:29.782Z,85.55
2022-07-28T21:06:34.797Z,85.88
2022-07-28T21:08:41.766Z,85.67
2022-07-28T21:10:46.148Z,86.01
2022-07-28T21:12:50.013Z,86.44
2022-07-28T21:14:54.631Z,86.49
2022-07-28T21:16:58.544Z,86.56
2022-07-28T21:19:06.163Z,87.41
2022-07-28T21:21:10.422Z,86.84
2022-07-28T21:23:14.819Z,86.73
2022-07-28T21:25:18.844Z,87.04
2022-07-28T21:27:22.777Z,87.72
2022-07-28T21:31:30.751Z,87.00
2022-07-28T21:33:34.882Z,87.70
2022-07-28T21:35:43.694Z,87.29
2022-07-28T21:37:48.026Z,87.84
2022-07-28T21:39:52.233Z,87.71
2022-07-28T21:41:56.133Z,87.85
2022-07-28T21:44:04.172Z,88.11
2022-07-28T21:46:08.392Z,87.67
2022-07-28T21:48:12.445Z,88.14
2022-07-28T21:50:16.920Z,87.94
2022-07-28T21:52:22.968Z,88.28
2022-07-28T21:54:27.055Z,88.77
2022-07-28T21:56:31.836Z,88.07
2022-07-28T21:58:36.476Z,88.27
2022-07-28T22:00:40.552Z,88.01
2022-07-28T22:02:44.644Z,88.06
2022-07-28T22:04:48.605Z,88.58
2022-07-28T22:06:52.556Z,88.70
2022-07-28T22:08:58.118Z,89.26
2022-07-28T22:11:02.960Z,89.18
2022-07-28T22:13:07.198Z,88.79
2022-07-28T22:15:11.827Z,89.27
2022-07-28T22:17:16.203Z,89.08
2022-07-28T22:19:20.763Z,89.02
2022-07-28T22:21:25.103Z,89.30
2022-07-28T22:23:30.222Z,89.51
2022-07-28T22:25:36.776Z,89.53
2022-07-28T22:27:41.013Z,89.15
2022-07-28T22:29:50.147Z,89.43
2022-07-28T22:31:59.355Z,89.47
2022-07-28T22:34:04.236Z,89.20
2022-07-28T22:36:09.548Z,89.48
2022-07-28T22:38:14.015Z,89.30
2022-07-28T22:40:19.098Z,89.13
2022-07-28T22:42:26.418Z,89.51
2022-07-28T22:44:31.479Z,89.28
2022-07-28T22:46:38.339Z,89.06
2022-07-28T22:48:42.560Z,88.88
2022-07-28T22:50:47.466Z,89.03
2022-07-28T22:52:51.458Z,89.12
2022-07-28T22:54:56.998Z,89.37
2022-07-28T22:57:00.825Z,89.38
2022-07-28T22:59:06.775Z,89.03
2022-07-28T23:01:10.450Z,89.52
2022-07-28T23:03:15.901Z,89.11
2022-07-28T23:05:20.750Z,89.31
2022-07-28T23:07:51.068Z,89.71
2022-07-28T23:09:48.322Z,89.34
2022-07-28T23:11:55.962Z,89.04
2022-07-28T23:14:00.059Z,89.17
2022-07-28T23:16:05.749Z,88.43
2022-07-28T23:18:09.382Z,88.44
2022-07-28T23:20:14.021Z,88.39
2022-07-28T23:22:19.803Z,88.17
2022-07-28T23:24:23.759Z,88.17
2022-07-28T23:26:27.636Z,87.51
2022-07-28T23:28:31.946Z,87.56
2022-07-28T23:30:36.590Z,87.86
2022-07-28T23:32:41.862Z,87.98
2022-07-28T23:34:46.346Z,87.53
2022-07-28T23:36:49.975Z,87.23
2022-07-28T23:38:54.157Z,88.15
2022-07-28T23:40:57.826Z,88.30
2022-07-28T23:43:01.872Z,88.17
2022-07-28T23:45:06.346Z,87.93
2022-07-28T23:47:10.135Z,87.87
2022-07-28T23:49:15.528Z,87.97
2022-07-28T23:51:19.395Z,88.18
2022-07-28T23:53:23.274Z,88.33
2022-07-28T23:55:26.942Z,87.84
2022-07-28T23:57:31.551Z,87.36
2022-07-28T23:59:35.618Z,87.75
